Disclaimer

Please do not use the information listed here in-flight or in-navigation, as they are not provided to us by the airports but are provided by volunteers, so they might be outdated.

Search


Regions


Airport information page

Radio informations:
Brisbane Center - 121.2 MHz
Common traffic adv. frequency (CTAF) - 122.7 MHz

Airport informations:
Latitude: 26° 34' 51.00" S
Longitude: 151° 50' 28.00" E
Elevation: 1492 feet - 455 meters
Operating hours: N/A
Operating agency: Civil government, landing fees and diplomatic clearance may be required
Timezone: UTC+10
Fuel: Jet A1, without icing nhibitor.

100/130 MIL Spec, low lead, aviation gasoline (BLUE)

Runway information:
05/23 - 4275 x 98 feet< - >1303 x 30 meters
16/34 - 5249 x 98 feet< - >1600 x 30 meters

Recent METARs:
YKRY 181500Z AUTO 10007KT 9999 // OVC016 21/19 Q1013
YKRY 181500Z AUTO 10007KT 9999 // OVC016 21/19 Q1013
YKRY 181600Z AUTO /////KT //// // ////// 20/19 Q1013

Airport on the map: